Time;durP1;ratioP1;P1;durP2;ratioP2;P2;SDS_P1;SDS_P2;PMS_P1;PMS_P2;Temp;Humidity;BMP_temperature;BMP_pressure;BME280_temperature;BME280_humidity;BME280_pressure;Samples;Min_cycle;Max_cycle;Signal;HPM_P1;HPM_P2
2022/01/07 01:51:07;;;;;;;12.40;7.63;;;;;;;;;;4736505;30;20609;-89
2022/01/07 01:54:12;;;;;;;13.50;7.43;;;;;;;;;;4739016;30;20642;-89
2022/01/07 01:57:16;;;;;;;18.00;7.93;;;;;;;;;;4762783;30;20567;-89
2022/01/07 02:00:24;;;;;;;14.83;7.80;;;;;;;;;;4752858;30;21233;-88
2022/01/07 02:03:28;;;;;;;11.10;7.50;;;;;;;;;;4742464;30;20953;-89
2022/01/07 02:06:32;;;;;;;13.60;7.53;;;;;;;;;;4733771;30;20954;-90
2022/01/07 02:09:37;;;;;;;15.33;7.80;;;;;;;;;;4734797;30;20648;-89
2022/01/07 02:12:42;;;;;;;13.03;8.80;;;;;;;;;;4746397;30;20636;-89
2022/01/07 02:15:46;;;;;;;12.77;8.37;;;;;;;;;;4742339;30;20561;-89
2022/01/07 02:18:50;;;;;;;12.33;7.67;;;;;;;;;;4752299;30;20647;-89
2022/01/07 02:21:54;;;;;;;14.47;7.67;;;;;;;;;;4762264;30;20620;-89
2022/01/07 02:24:58;;;;;;;14.67;7.40;;;;;;;;;;4742146;30;20568;-88
2022/01/07 02:28:04;;;;;;;12.23;7.40;;;;;;;;;;4762561;30;21243;-89
2022/01/07 02:31:09;;;;;;;14.30;8.40;;;;;;;;;;4752292;30;20620;-89
2022/01/07 02:34:13;;;;;;;12.83;8.10;;;;;;;;;;4742105;30;20561;-89
2022/01/07 02:37:17;;;;;;;11.87;7.33;;;;;;;;;;4752085;30;20557;-89
2022/01/07 02:40:21;;;;;;;10.73;7.50;;;;;;;;;;4741739;30;20954;-89
2022/01/07 02:43:26;;;;;;;12.50;7.30;;;;;;;;;;4751849;30;20631;-89
2022/01/07 02:46:30;;;;;;;11.63;7.83;;;;;;;;;;4737273;30;20636;-89
2022/01/07 02:49:34;;;;;;;12.70;7.37;;;;;;;;;;4724125;30;20636;-89
2022/01/07 02:52:38;;;;;;;16.80;7.87;;;;;;;;;;4724110;30;20553;-90
2022/01/07 02:55:43;;;;;;;13.70;7.83;;;;;;;;;;4725077;30;20637;-88
2022/01/07 02:58:47;;;;;;;12.73;7.87;;;;;;;;;;4734036;30;21014;-89
2022/01/07 03:01:51;;;;;;;13.63;7.57;;;;;;;;;;4733963;30;20991;-89
2022/01/07 03:04:55;;;;;;;12.23;7.43;;;;;;;;;;4750629;30;20604;-89
2022/01/07 03:07:59;;;;;;;11.73;7.00;;;;;;;;;;4752520;30;20565;-89
2022/01/07 03:11:04;;;;;;;13.57;7.10;;;;;;;;;;4752042;30;20565;-89
2022/01/07 03:14:09;;;;;;;10.70;7.53;;;;;;;;;;4737312;30;20609;-89
2022/01/07 03:17:14;;;;;;;12.47;6.77;;;;;;;;;;4723894;30;20573;-89
2022/01/07 03:20:20;;;;;;;13.30;7.23;;;;;;;;;;4779524;25;21057;-91
2022/01/07 15:22:36;;;;;;;15.10;10.13;;;;;;;;;;4740172;25;20695;-89
2022/01/07 15:25:41;;;;;;;16.97;13.73;;;;;;;;;;4706877;30;20585;-89
2022/01/07 15:28:45;;;;;;;47.27;27.83;;;;;;;;;;4717161;30;20571;-89
2022/01/07 15:31:52;;;;;;;51.33;27.70;;;;;;;;;;4731491;30;20687;-89
2022/01/07 15:34:57;;;;;;;42.57;23.83;;;;;;;;;;4726445;30;20610;-89
2022/01/07 15:38:01;;;;;;;23.10;16.93;;;;;;;;;;4711947;30;20568;-88
2022/01/07 15:41:06;;;;;;;13.47;9.33;;;;;;;;;;4699397;30;20655;-89
2022/01/07 15:44:11;;;;;;;10.67;7.50;;;;;;;;;;4699150;30;20662;-89
2022/01/07 15:47:15;;;;;;;11.53;8.30;;;;;;;;;;4694884;30;20610;-89
2022/01/07 15:50:19;;;;;;;27.97;16.27;;;;;;;;;;4715842;30;20551;-89
2022/01/07 15:53:54;;;;;;;13.00;9.37;;;;;;;;;;4706567;30;21117;-89
2022/01/07 15:56:58;;;;;;;13.53;7.80;;;;;;;;;;4706119;30;20598;-88
2022/01/07 16:00:03;;;;;;;11.37;6.73;;;;;;;;;;4706354;30;20574;-88
2022/01/07 16:03:16;;;;;;;10.40;6.67;;;;;;;;;;4716444;30;20622;-88
2022/01/07 16:06:20;;;;;;;9.50;7.50;;;;;;;;;;4716013;30;20562;-88
2022/01/07 16:09:24;;;;;;;9.93;6.37;;;;;;;;;;4705375;30;20562;-88
2022/01/07 16:12:28;;;;;;;11.33;6.70;;;;;;;;;;4705578;30;20649;-88
2022/01/07 16:15:32;;;;;;;11.83;6.40;;;;;;;;;;4715938;30;20559;-89
2022/01/07 16:18:38;;;;;;;10.40;7.37;;;;;;;;;;4705478;30;20979;-91
2022/01/07 16:21:42;;;;;;;11.70;7.40;;;;;;;;;;4706050;30;20673;-88
2022/01/07 16:24:46;;;;;;;12.10;7.53;;;;;;;;;;4697872;30;20642;-88
2022/01/07 16:27:51;;;;;;;11.93;7.80;;;;;;;;;;4697995;30;20619;-88
2022/01/07 16:30:55;;;;;;;11.93;7.57;;;;;;;;;;4697858;30;20643;-87
2022/01/07 16:33:59;;;;;;;10.53;6.60;;;;;;;;;;4708531;30;21099;-89
2022/01/07 16:37:04;;;;;;;8.37;6.40;;;;;;;;;;4697832;30;20571;-91
2022/01/07 16:40:10;;;;;;;10.20;6.43;;;;;;;;;;4706096;30;20551;-95
2022/01/07 16:43:15;;;;;;;9.67;6.13;;;;;;;;;;4691893;30;20666;-89
2022/01/07 16:46:48;;;;;;;9.00;6.80;;;;;;;;;;4708600;30;20571;-87
2022/01/07 16:49:52;;;;;;;11.67;7.63;;;;;;;;;;4698218;30;20543;-89
2022/01/07 16:52:57;;;;;;;10.33;7.47;;;;;;;;;;4718464;30;20567;-88
2022/01/07 16:56:02;;;;;;;11.00;6.93;;;;;;;;;;4707810;30;20564;-89
2022/01/07 16:59:06;;;;;;;11.03;7.30;;;;;;;;;;4697639;30;20607;-89
2022/01/07 17:02:10;;;;;;;10.30;6.90;;;;;;;;;;4707609;30;20622;-87
2022/01/07 17:05:15;;;;;;;12.13;6.80;;;;;;;;;;4697992;30;20980;-87
2022/01/07 17:08:19;;;;;;;10.47;7.70;;;;;;;;;;4698133;30;20571;-87
2022/01/07 17:11:23;;;;;;;13.97;9.20;;;;;;;;;;4708415;30;20638;-86
2022/01/07 17:14:28;;;;;;;15.10;9.67;;;;;;;;;;4708792;30;20555;-86
2022/01/07 17:17:37;;;;;;;39.30;30.20;;;;;;;;;;4702169;30;20609;-87
2022/01/07 17:20:41;;;;;;;37.63;22.70;;;;;;;;;;4716129;30;20563;-87
2022/01/07 17:23:45;;;;;;;23.97;15.17;;;;;;;;;;4705922;30;20614;-87
2022/01/07 17:26:49;;;;;;;17.37;10.93;;;;;;;;;;4705212;30;20558;-87
2022/01/07 17:29:54;;;;;;;13.47;9.17;;;;;;;;;;4705333;30;21165;-87
2022/01/07 17:32:58;;;;;;;15.87;10.67;;;;;;;;;;4715113;30;20562;-87
2022/01/07 17:36:09;;;;;;;19.13;11.97;;;;;;;;;;4697513;30;21099;-87
2022/01/07 17:39:39;;;;;;;14.87;9.40;;;;;;;;;;4707816;30;20560;-90
2022/01/07 17:42:43;;;;;;;13.03;8.80;;;;;;;;;;4706761;30;20643;-88
2022/01/07 17:45:49;;;;;;;11.30;7.53;;;;;;;;;;4696974;30;20599;-89
2022/01/07 17:48:54;;;;;;;12.13;7.93;;;;;;;;;;4697084;30;20575;-89
2022/01/07 17:51:58;;;;;;;14.60;8.60;;;;;;;;;;4717692;30;20654;-92
2022/01/07 17:55:04;;;;;;;15.83;9.37;;;;;;;;;;4707473;30;20611;-93
2022/01/07 17:58:08;;;;;;;14.27;9.30;;;;;;;;;;4713657;30;20613;-93
2022/01/07 18:01:12;;;;;;;19.73;10.93;;;;;;;;;;4715302;30;20653;-92
2022/01/07 18:04:16;;;;;;;18.23;10.40;;;;;;;;;;4715641;30;20669;-92
2022/01/07 18:07:20;;;;;;;11.57;8.10;;;;;;;;;;4706134;30;20908;-92
2022/01/07 18:10:25;;;;;;;18.70;10.97;;;;;;;;;;4689082;30;20563;-93
2022/01/07 18:13:30;;;;;;;32.37;18.27;;;;;;;;;;4687686;30;20559;-91
2022/01/07 18:16:34;;;;;;;28.03;15.07;;;;;;;;;;4698703;30;20555;-93
2022/01/07 18:19:39;;;;;;;62.40;30.20;;;;;;;;;;4700670;30;20563;-92
2022/01/07 18:22:43;;;;;;;58.97;29.23;;;;;;;;;;4700167;30;20667;-92
2022/01/07 18:25:47;;;;;;;21.30;12.37;;;;;;;;;;4700276;30;21135;-91
2022/01/07 18:28:52;;;;;;;16.47;11.70;;;;;;;;;;4722457;30;20602;-91
2022/01/07 18:31:56;;;;;;;9.37;7.10;;;;;;;;;;4700603;30;20646;-92
2022/01/07 18:35:00;;;;;;;10.87;7.43;;;;;;;;;;4717145;30;20598;-92
2022/01/07 18:38:07;;;;;;;10.60;6.83;;;;;;;;;;4708140;30;20566;-92
2022/01/07 18:41:11;;;;;;;9.47;6.87;;;;;;;;;;4707052;30;20660;-92
2022/01/07 18:44:15;;;;;;;9.17;6.67;;;;;;;;;;4717528;30;20713;-91
2022/01/07 18:47:19;;;;;;;8.20;6.40;;;;;;;;;;4717230;30;20641;-91
2022/01/07 18:50:23;;;;;;;9.63;6.70;;;;;;;;;;4727254;30;20609;-91
2022/01/07 18:53:28;;;;;;;11.17;7.20;;;;;;;;;;4717739;30;20558;-91
2022/01/07 18:56:32;;;;;;;10.30;6.70;;;;;;;;;;4717541;30;20550;-91
2022/01/07 18:59:37;;;;;;;9.87;7.03;;;;;;;;;;4707158;30;21164;-92
2022/01/07 19:02:42;;;;;;;11.10;8.60;;;;;;;;;;4716589;30;20696;-91
2022/01/07 19:05:47;;;;;;;11.00;8.20;;;;;;;;;;4706841;30;20610;-91
2022/01/07 19:08:51;;;;;;;11.03;7.03;;;;;;;;;;4699471;30;21087;-91
2022/01/07 19:11:55;;;;;;;12.20;8.83;;;;;;;;;;4689473;30;20633;-92
2022/01/07 19:14:59;;;;;;;16.93;12.47;;;;;;;;;;4699332;30;20567;-91
2022/01/07 19:18:04;;;;;;;29.70;17.57;;;;;;;;;;4698868;30;20618;-90
2022/01/07 19:21:09;;;;;;;19.07;12.47;;;;;;;;;;4699402;30;20657;-91
2022/01/07 19:24:13;;;;;;;10.30;7.90;;;;;;;;;;4709948;30;20614;-91
2022/01/07 19:27:17;;;;;;;11.10;7.93;;;;;;;;;;4708588;30;20673;-91
2022/01/07 19:30:22;;;;;;;11.10;8.00;;;;;;;;;;4706553;30;20570;-91
2022/01/07 19:33:26;;;;;;;9.90;7.13;;;;;;;;;;4706504;30;20566;-91
2022/01/07 19:36:30;;;;;;;9.57;7.20;;;;;;;;;;4716331;30;20617;-92
2022/01/07 19:39:34;;;;;;;17.20;11.20;;;;;;;;;;4706010;30;20637;-91
2022/01/07 19:42:38;;;;;;;10.43;8.07;;;;;;;;;;4706173;30;20629;-91
2022/01/07 19:45:42;;;;;;;11.47;7.73;;;;;;;;;;4715921;30;20606;-91
2022/01/07 19:48:46;;;;;;;9.90;7.70;;;;;;;;;;4706076;30;20617;-91
2022/01/07 19:51:49;;;;;;;10.33;7.10;;;;;;;;;;4715930;30;20641;-90
2022/01/07 19:54:55;;;;;;;10.70;7.17;;;;;;;;;;4706174;30;21118;-91
2022/01/07 19:57:59;;;;;;;13.13;7.73;;;;;;;;;;4706154;30;20551;-91
2022/01/07 20:01:04;;;;;;;11.33;7.20;;;;;;;;;;4716039;30;21185;-92
2022/01/07 20:04:09;;;;;;;9.53;7.23;;;;;;;;;;4705940;30;20606;-91
2022/01/07 20:07:13;;;;;;;9.60;7.47;;;;;;;;;;4705792;30;20570;-91
2022/01/07 20:10:19;;;;;;;10.17;6.60;;;;;;;;;;4705596;30;20566;-88
2022/01/07 20:13:23;;;;;;;10.27;7.60;;;;;;;;;;4715490;30;20555;-88
2022/01/07 20:16:28;;;;;;;10.73;7.60;;;;;;;;;;4706156;30;20551;-89
2022/01/07 20:19:32;;;;;;;8.40;6.47;;;;;;;;;;4705480;30;20567;-88
2022/01/07 20:22:36;;;;;;;9.13;6.80;;;;;;;;;;4714987;30;20657;-88
2022/01/07 20:25:40;;;;;;;18.87;12.70;;;;;;;;;;4705419;30;20614;-89
2022/01/07 20:28:44;;;;;;;47.10;23.97;;;;;;;;;;4705133;30;20916;-89
2022/01/07 20:31:48;;;;;;;16.27;11.40;;;;;;;;;;4705333;30;20651;-88
2022/01/07 20:34:52;;;;;;;12.77;10.40;;;;;;;;;;4705368;30;20550;-88
2022/01/07 20:37:56;;;;;;;13.67;10.20;;;;;;;;;;4705377;30;21107;-88
2022/01/07 20:41:01;;;;;;;10.20;8.20;;;;;;;;;;4714524;30;20672;-87
2022/01/07 20:44:11;;;;;;;9.77;6.93;;;;;;;;;;4704864;30;20574;-88
2022/01/07 20:47:16;;;;;;;8.03;6.63;;;;;;;;;;4714815;30;20567;-88
2022/01/07 20:50:21;;;;;;;9.33;6.73;;;;;;;;;;4714903;30;20575;-88
2022/01/07 20:53:25;;;;;;;8.73;6.83;;;;;;;;;;4705337;30;20562;-88
2022/01/07 20:56:29;;;;;;;9.37;7.03;;;;;;;;;;4715234;30;20563;-88
2022/01/07 20:59:33;;;;;;;9.10;6.63;;;;;;;;;;4705131;30;20576;-88
2022/01/07 21:02:38;;;;;;;9.63;6.93;;;;;;;;;;4705013;30;20649;-88
2022/01/07 21:05:42;;;;;;;9.10;7.10;;;;;;;;;;4714796;30;20971;-87
2022/01/07 21:08:48;;;;;;;8.33;6.77;;;;;;;;;;4714559;30;20570;-88
2022/01/07 21:11:52;;;;;;;9.07;7.17;;;;;;;;;;4704879;30;20637;-88
2022/01/07 21:14:56;;;;;;;8.13;6.40;;;;;;;;;;4704922;30;20566;-88
2022/01/07 21:18:00;;;;;;;7.90;6.03;;;;;;;;;;4714613;30;20562;-88
2022/01/07 21:21:04;;;;;;;8.53;6.30;;;;;;;;;;4734034;24;20653;-90
2022/01/07 21:24:11;;;;;;;8.43;6.50;;;;;;;;;;4709213;30;20606;-89
2022/01/07 21:27:16;;;;;;;7.17;6.00;;;;;;;;;;4714727;30;20555;-89
2022/01/07 21:30:20;;;;;;;7.43;6.50;;;;;;;;;;4670109;30;20560;-89
2022/01/07 21:33:24;;;;;;;8.20;6.00;;;;;;;;;;4663014;30;20558;-89
2022/01/07 21:36:28;;;;;;;7.37;6.07;;;;;;;;;;4662923;30;20588;-88
2022/01/07 21:39:32;;;;;;;8.07;6.07;;;;;;;;;;4662698;30;20565;-88
2022/01/07 21:42:36;;;;;;;8.73;6.67;;;;;;;;;;4672726;30;20628;-88
2022/01/07 21:45:41;;;;;;;8.43;6.30;;;;;;;;;;4662654;30;20613;-88
2022/01/07 21:48:45;;;;;;;8.03;5.87;;;;;;;;;;4662787;30;20565;-88
2022/01/07 21:51:49;;;;;;;8.20;6.70;;;;;;;;;;4675581;30;20632;-88
2022/01/07 21:54:53;;;;;;;7.60;6.37;;;;;;;;;;4665912;30;20564;-88
2022/01/07 21:57:58;;;;;;;7.10;5.63;;;;;;;;;;4666033;30;20919;-88
2022/01/07 22:01:03;;;;;;;9.33;6.70;;;;;;;;;;4685667;30;20553;-86
2022/01/07 22:04:29;;;;;;;8.10;6.53;;;;;;;;;;4666692;30;20561;-87
2022/01/07 22:07:33;;;;;;;8.27;6.50;;;;;;;;;;4656377;30;20581;-87
2022/01/07 22:10:37;;;;;;;7.20;6.17;;;;;;;;;;4685598;30;20569;-88
2022/01/07 22:13:41;;;;;;;8.23;6.43;;;;;;;;;;4685508;30;20560;-89
2022/01/07 22:16:46;;;;;;;8.47;6.30;;;;;;;;;;4675756;30;20553;-90
2022/01/07 22:19:50;;;;;;;7.33;5.90;;;;;;;;;;4685585;30;20557;-89
2022/01/07 22:22:55;;;;;;;7.30;5.93;;;;;;;;;;4719694;30;20665;-90
2022/01/07 22:25:59;;;;;;;6.93;6.00;;;;;;;;;;4710147;30;20611;-89
2022/01/07 22:29:04;;;;;;;6.67;5.97;;;;;;;;;;4709838;30;20559;-89
2022/01/07 22:32:08;;;;;;;9.50;6.50;;;;;;;;;;4699936;30;20630;-89
2022/01/07 22:35:13;;;;;;;8.37;6.13;;;;;;;;;;4699814;30;20551;-89
2022/01/07 22:38:17;;;;;;;8.27;6.27;;;;;;;;;;4709504;30;20571;-89
2022/01/07 22:41:21;;;;;;;7.60;6.40;;;;;;;;;;4699631;30;20640;-89
2022/01/07 22:44:26;;;;;;;8.23;5.97;;;;;;;;;;4699625;30;20940;-89
2022/01/07 22:47:30;;;;;;;7.83;6.23;;;;;;;;;;4699874;30;20544;-89
2022/01/07 22:50:34;;;;;;;6.97;5.80;;;;;;;;;;4709376;30;21078;-89
2022/01/07 22:53:38;;;;;;;7.13;5.87;;;;;;;;;;4699320;30;20921;-89
2022/01/07 22:56:42;;;;;;;8.30;6.30;;;;;;;;;;4699969;30;20547;-89
2022/01/07 22:59:47;;;;;;;9.53;6.40;;;;;;;;;;4701711;30;21175;-89
2022/01/07 23:02:58;;;;;;;9.53;7.40;;;;;;;;;;4654517;30;21200;-89
2022/01/07 23:06:03;;;;;;;8.17;6.33;;;;;;;;;;4675082;30;20613;-89
2022/01/07 23:09:07;;;;;;;6.33;5.73;;;;;;;;;;4665019;30;20565;-89
2022/01/07 23:12:11;;;;;;;9.63;6.70;;;;;;;;;;4672768;30;20665;-88
2022/01/07 23:15:15;;;;;;;7.00;6.27;;;;;;;;;;4699119;30;21110;-88
2022/01/07 23:18:27;;;;;;;8.53;6.67;;;;;;;;;;4698901;30;20567;-89
2022/01/07 23:21:31;;;;;;;7.10;5.90;;;;;;;;;;4699103;30;20658;-88
2022/01/07 23:24:36;;;;;;;8.30;6.90;;;;;;;;;;4698807;30;20614;-88
2022/01/07 23:27:41;;;;;;;8.50;6.40;;;;;;;;;;4698619;30;20940;-88
2022/01/07 23:30:46;;;;;;;7.53;6.53;;;;;;;;;;4699008;30;20919;-88
2022/01/07 23:33:52;;;;;;;7.37;6.23;;;;;;;;;;4698712;30;20555;-89
2022/01/07 23:36:56;;;;;;;8.33;6.37;;;;;;;;;;4698773;30;20563;-89
2022/01/07 23:40:03;;;;;;;7.33;6.17;;;;;;;;;;4699045;30;20552;-89
2022/01/07 23:43:09;;;;;;;7.47;6.53;;;;;;;;;;4698534;30;20630;-89
2022/01/07 23:46:13;;;;;;;7.53;6.30;;;;;;;;;;4698853;30;20604;-89
2022/01/07 23:49:17;;;;;;;7.87;6.50;;;;;;;;;;4698742;30;20559;-89
2022/01/07 23:52:21;;;;;;;7.70;5.93;;;;;;;;;;4708180;30;20650;-89
2022/01/07 23:55:25;;;;;;;7.10;5.97;;;;;;;;;;4664266;30;20612;-89
2022/01/07 23:58:29;;;;;;;7.20;5.97;;;;;;;;;;4674048;30;20561;-89
